sensor_id;sensor_type;location;lat;lon;timestamp;pressure;altitude;pressure_sealevel;temperature;humidity
21240;BME280;10778;48.962;9.018;2023-08-21T00:01:22;99557.41;;;21.83;100.00
21240;BME280;10778;48.962;9.018;2023-08-21T00:03:48;99557.78;;;21.80;100.00
21240;BME280;10778;48.962;9.018;2023-08-21T00:06:14;99553.25;;;21.81;100.00
21240;BME280;10778;48.962;9.018;2023-08-21T00:08:40;99559.41;;;21.68;100.00
21240;BME280;10778;48.962;9.018;2023-08-21T00:11:06;99557.69;;;21.60;100.00
21240;BME280;10778;48.962;9.018;2023-08-21T00:13:32;99566.59;;;21.67;100.00
21240;BME280;10778;48.962;9.018;2023-08-21T00:15:58;99561.59;;;21.64;100.00
21240;BME280;10778;48.962;9.018;2023-08-21T00:18:24;99560.75;;;21.64;100.00
21240;BME280;10778;48.962;9.018;2023-08-21T00:20:51;99559.13;;;21.63;100.00
21240;BME280;10778;48.962;9.018;2023-08-21T00:23:17;99558.41;;;21.47;100.00
21240;BME280;10778;48.962;9.018;2023-08-21T00:25:46;99562.75;;;21.41;100.00
21240;BME280;10778;48.962;9.018;2023-08-21T00:28:13;99550.88;;;21.22;100.00
21240;BME280;10778;48.962;9.018;2023-08-21T00:30:39;99548.25;;;21.29;100.00
21240;BME280;10778;48.962;9.018;2023-08-21T00:33:05;99554.63;;;21.28;100.00
21240;BME280;10778;48.962;9.018;2023-08-21T00:35:31;99560.16;;;21.26;100.00
21240;BME280;10778;48.962;9.018;2023-08-21T00:37:57;99555.44;;;21.28;100.00
21240;BME280;10778;48.962;9.018;2023-08-21T00:40:23;99556.88;;;21.24;100.00
21240;BME280;10778;48.962;9.018;2023-08-21T00:42:49;99549.06;;;21.23;100.00
21240;BME280;10778;48.962;9.018;2023-08-21T00:45:15;99549.78;;;21.10;100.00
21240;BME280;10778;48.962;9.018;2023-08-21T00:47:42;99543.63;;;21.09;100.00
21240;BME280;10778;48.962;9.018;2023-08-21T00:50:09;99546.06;;;21.11;100.00
21240;BME280;10778;48.962;9.018;2023-08-21T00:52:39;99541.97;;;21.08;100.00
21240;BME280;10778;48.962;9.018;2023-08-21T00:55:07;99541.97;;;21.08;100.00
21240;BME280;10778;48.962;9.018;2023-08-21T00:57:34;99538.44;;;21.08;100.00
21240;BME280;10778;48.962;9.018;2023-08-21T01:00:01;99539.88;;;21.03;100.00
21240;BME280;10778;48.962;9.018;2023-08-21T01:02:27;99538.31;;;20.87;100.00
21240;BME280;10778;48.962;9.018;2023-08-21T01:04:53;99537.09;;;20.90;100.00
21240;BME280;10778;48.962;9.018;2023-08-21T01:07:19;99539.16;;;20.88;100.00
21240;BME280;10778;48.962;9.018;2023-08-21T01:09:51;99537.53;;;20.94;100.00
21240;BME280;10778;48.962;9.018;2023-08-21T01:12:33;99539.53;;;20.85;100.00
21240;BME280;10778;48.962;9.018;2023-08-21T01:17:30;99543.28;;;20.69;100.00
21240;BME280;10778;48.962;9.018;2023-08-21T01:19:56;99536.50;;;20.66;100.00
21240;BME280;10778;48.962;9.018;2023-08-21T01:22:27;99542.41;;;20.61;100.00
21240;BME280;10778;48.962;9.018;2023-08-21T01:25:00;99549.03;;;20.44;100.00
21240;BME280;10778;48.962;9.018;2023-08-21T01:27:26;99548.03;;;20.45;100.00
21240;BME280;10778;48.962;9.018;2023-08-21T01:29:53;99545.47;;;20.58;100.00
21240;BME280;10778;48.962;9.018;2023-08-21T01:32:21;99545.19;;;20.53;100.00
21240;BME280;10778;48.962;9.018;2023-08-21T01:34:55;99548.47;;;20.49;100.00
21240;BME280;10778;48.962;9.018;2023-08-21T01:37:23;99544.41;;;20.53;100.00
21240;BME280;10778;48.962;9.018;2023-08-21T01:39:49;99537.78;;;20.49;100.00
21240;BME280;10778;48.962;9.018;2023-08-21T01:42:15;99547.69;;;20.55;100.00
21240;BME280;10778;48.962;9.018;2023-08-21T01:44:41;99540.69;;;20.54;100.00
21240;BME280;10778;48.962;9.018;2023-08-21T01:47:07;99544.41;;;20.53;100.00
21240;BME280;10778;48.962;9.018;2023-08-21T01:49:33;99544.50;;;20.44;100.00
21240;BME280;10778;48.962;9.018;2023-08-21T01:51:59;99536.88;;;20.41;100.00
21240;BME280;10778;48.962;9.018;2023-08-21T01:54:25;99539.69;;;20.33;100.00
21240;BME280;10778;48.962;9.018;2023-08-21T01:56:51;99536.19;;;20.32;100.00
21240;BME280;10778;48.962;9.018;2023-08-21T01:59:17;99530.50;;;20.42;100.00
21240;BME280;10778;48.962;9.018;2023-08-21T02:01:43;99533.56;;;20.39;100.00
21240;BME280;10778;48.962;9.018;2023-08-21T02:04:09;99536.19;;;20.32;100.00
21240;BME280;10778;48.962;9.018;2023-08-21T02:06:35;99541.66;;;20.24;100.00
21240;BME280;10778;48.962;9.018;2023-08-21T02:09:01;99534.66;;;20.23;100.00
21240;BME280;10778;48.962;9.018;2023-08-21T02:11:27;99538.63;;;20.27;100.00
21240;BME280;10778;48.962;9.018;2023-08-21T02:13:53;99549.38;;;20.12;100.00
21240;BME280;10778;48.962;9.018;2023-08-21T02:16:19;99541.34;;;20.12;100.00
21240;BME280;10778;48.962;9.018;2023-08-21T02:18:47;99540.13;;;20.15;100.00
21240;BME280;10778;48.962;9.018;2023-08-21T02:21:13;99540.13;;;20.15;100.00
21240;BME280;10778;48.962;9.018;2023-08-21T02:23:39;99549.06;;;20.22;100.00
21240;BME280;10778;48.962;9.018;2023-08-21T02:26:05;99541.09;;;20.29;100.00
21240;BME280;10778;48.962;9.018;2023-08-21T02:28:31;99547.88;;;20.31;100.00
21240;BME280;10778;48.962;9.018;2023-08-21T02:30:57;99548.91;;;20.30;100.00
21240;BME280;10778;48.962;9.018;2023-08-21T02:33:23;99551.50;;;20.24;100.00
21240;BME280;10778;48.962;9.018;2023-08-21T02:35:49;99549.22;;;20.21;100.00
21240;BME280;10778;48.962;9.018;2023-08-21T02:38:15;99553.94;;;20.18;100.00
21240;BME280;10778;48.962;9.018;2023-08-21T02:40:41;99548.78;;;20.17;100.00
21240;BME280;10778;48.962;9.018;2023-08-21T02:43:07;99554.56;;;20.21;100.00
21240;BME280;10778;48.962;9.018;2023-08-21T02:45:33;99557.81;;;20.16;100.00
21240;BME280;10778;48.962;9.018;2023-08-21T02:47:59;99549.94;;;20.08;100.00
21240;BME280;10778;48.962;9.018;2023-08-21T02:50:25;99549.47;;;20.04;100.00
21240;BME280;10778;48.962;9.018;2023-08-21T02:52:51;99558.25;;;19.98;100.00
21240;BME280;10778;48.962;9.018;2023-08-21T02:55:17;99550.63;;;19.95;100.00
21240;BME280;10778;48.962;9.018;2023-08-21T02:57:45;99551.88;;;19.84;100.00
21240;BME280;10778;48.962;9.018;2023-08-21T03:00:11;99547.47;;;19.76;100.00
21240;BME280;10778;48.962;9.018;2023-08-21T03:02:37;99557.25;;;19.69;100.00
21240;BME280;10778;48.962;9.018;2023-08-21T03:05:04;99547.03;;;19.57;100.00
21240;BME280;10778;48.962;9.018;2023-08-21T03:07:30;99557.63;;;19.51;100.00
21240;BME280;10778;48.962;9.018;2023-08-21T03:09:56;99556.34;;;19.46;100.00
21240;BME280;10778;48.962;9.018;2023-08-21T03:12:22;99557.81;;;19.49;100.00
21240;BME280;10778;48.962;9.018;2023-08-21T03:14:48;99554.91;;;19.44;100.00
21240;BME280;10778;48.962;9.018;2023-08-21T03:17:14;99552.28;;;19.51;100.00
21240;BME280;10778;48.962;9.018;2023-08-21T03:19:40;99557.63;;;19.51;100.00
21240;BME280;10778;48.962;9.018;2023-08-21T03:22:06;99560.88;;;19.46;100.00
21240;BME280;10778;48.962;9.018;2023-08-21T03:24:33;99558.38;;;19.44;100.00
21240;BME280;10778;48.962;9.018;2023-08-21T03:26:59;99561.97;;;19.52;100.00
21240;BME280;10778;48.962;9.018;2023-08-21T03:29:25;99556.19;;;19.48;100.00
21240;BME280;10778;48.962;9.018;2023-08-21T03:31:52;99559.47;;;19.50;100.00
21240;BME280;10778;48.962;9.018;2023-08-21T03:34:19;99558.38;;;19.44;100.00
21240;BME280;10778;48.962;9.018;2023-08-21T03:36:46;99561.16;;;19.36;100.00
21240;BME280;10778;48.962;9.018;2023-08-21T03:39:12;99561.78;;;19.38;100.00
21240;BME280;10778;48.962;9.018;2023-08-21T03:41:43;99559.22;;;19.45;100.00
21240;BME280;10778;48.962;9.018;2023-08-21T03:44:09;99559.75;;;19.40;100.00
21240;BME280;10778;48.962;9.018;2023-08-21T03:46:36;99562.06;;;19.43;100.00
21240;BME280;10778;48.962;9.018;2023-08-21T03:49:03;99565.81;;;19.34;100.00
21240;BME280;10778;48.962;9.018;2023-08-21T03:51:29;99563.09;;;19.27;100.00
21240;BME280;10778;48.962;9.018;2023-08-21T03:53:55;99568.03;;;19.30;100.00
21240;BME280;10778;48.962;9.018;2023-08-21T03:56:23;99562.34;;;19.33;100.00
21240;BME280;10778;48.962;9.018;2023-08-21T03:58:49;99576.41;;;19.27;100.00
21240;BME280;10778;48.962;9.018;2023-08-21T04:01:15;99571.09;;;19.27;100.00
21240;BME280;10778;48.962;9.018;2023-08-21T04:03:42;99576.13;;;19.22;100.00
21240;BME280;10778;48.962;9.018;2023-08-21T04:06:08;99571.72;;;19.29;100.00
21240;BME280;10778;48.962;9.018;2023-08-21T04:08:34;99577.34;;;19.35;100.00
21240;BME280;10778;48.962;9.018;2023-08-21T04:11:01;99587.16;;;19.34;100.00
21240;BME280;10778;48.962;9.018;2023-08-21T04:13:28;99595.63;;;19.38;100.00
21240;BME280;10778;48.962;9.018;2023-08-21T04:15:54;99587.53;;;19.31;100.00
21240;BME280;10778;48.962;9.018;2023-08-21T04:18:22;99590.66;;;19.35;100.00
21240;BME280;10778;48.962;9.018;2023-08-21T04:20:48;99590.78;;;19.26;100.00
21240;BME280;10778;48.962;9.018;2023-08-21T04:23:14;99592.78;;;19.24;100.00
21240;BME280;10778;48.962;9.018;2023-08-21T04:25:40;99593.88;;;19.30;100.00
21240;BME280;10778;48.962;9.018;2023-08-21T04:28:07;99590.84;;;19.33;100.00
21240;BME280;10778;48.962;9.018;2023-08-21T04:30:40;99584.78;;;19.39;100.00
21240;BME280;10778;48.962;9.018;2023-08-21T04:33:06;99586.63;;;19.39;100.00
21240;BME280;10778;48.962;9.018;2023-08-21T04:35:39;99593.06;;;19.29;100.00
21240;BME280;10778;48.962;9.018;2023-08-21T04:38:05;99592.06;;;19.30;100.00
21240;BME280;10778;48.962;9.018;2023-08-21T04:40:32;99586.81;;;19.37;100.00
21240;BME280;10778;48.962;9.018;2023-08-21T04:42:58;99584.25;;;19.44;100.00
21240;BME280;10778;48.962;9.018;2023-08-21T04:45:24;99586.53;;;19.47;100.00
21240;BME280;10778;48.962;9.018;2023-08-21T04:47:50;99594.56;;;19.47;100.00
21240;BME280;10778;48.962;9.018;2023-08-21T04:50:17;99596.47;;;19.53;100.00
21240;BME280;10778;48.962;9.018;2023-08-21T04:52:43;99598.47;;;19.66;100.00
21240;BME280;10778;48.962;9.018;2023-08-21T04:55:09;99597.84;;;19.94;100.00
21240;BME280;10778;48.962;9.018;2023-08-21T04:57:37;99597.47;;;20.34;100.00
21240;BME280;10778;48.962;9.018;2023-08-21T05:00:06;99595.63;;;20.56;100.00
21240;BME280;10778;48.962;9.018;2023-08-21T05:02:38;99599.81;;;20.87;100.00
21240;BME280;10778;48.962;9.018;2023-08-21T05:05:05;99600.59;;;21.10;100.00
21240;BME280;10778;48.962;9.018;2023-08-21T05:07:32;99598.34;;;21.42;100.00
21240;BME280;10778;48.962;9.018;2023-08-21T05:10:00;99597.78;;;21.88;100.00
21240;BME280;10778;48.962;9.018;2023-08-21T05:12:27;99600.38;;;22.24;100.00
21240;BME280;10778;48.962;9.018;2023-08-21T05:14:53;99604.50;;;22.20;100.00
21240;BME280;10778;48.962;9.018;2023-08-21T05:17:21;99597.94;;;22.42;99.19
21240;BME280;10778;48.962;9.018;2023-08-21T05:19:47;99601.09;;;22.73;97.45
21240;BME280;10778;48.962;9.018;2023-08-21T05:22:13;99600.91;;;22.81;98.18
21240;BME280;10778;48.962;9.018;2023-08-21T05:24:39;99601.28;;;23.32;93.74
21240;BME280;10778;48.962;9.018;2023-08-21T05:27:06;99599.53;;;23.71;91.75
21240;BME280;10778;48.962;9.018;2023-08-21T05:29:32;99599.47;;;23.92;89.31
21240;BME280;10778;48.962;9.018;2023-08-21T05:31:59;99597.88;;;24.23;86.19
21240;BME280;10778;48.962;9.018;2023-08-21T05:34:25;99596.66;;;24.19;88.57
21240;BME280;10778;48.962;9.018;2023-08-21T05:36:51;99597.84;;;23.77;89.20
21240;BME280;10778;48.962;9.018;2023-08-21T05:39:20;99602.97;;;23.85;89.36
21240;BME280;10778;48.962;9.018;2023-08-21T05:41:49;99599.03;;;23.95;88.76
21240;BME280;10778;48.962;9.018;2023-08-21T05:44:16;99609.84;;;23.75;91.05
21240;BME280;10778;48.962;9.018;2023-08-21T05:46:42;99599.88;;;24.34;86.75
21240;BME280;10778;48.962;9.018;2023-08-21T05:49:09;99602.13;;;24.37;86.36
21240;BME280;10778;48.962;9.018;2023-08-21T05:51:35;99603.22;;;24.87;83.77
21240;BME280;10778;48.962;9.018;2023-08-21T05:54:01;99596.06;;;25.25;81.72
21240;BME280;10778;48.962;9.018;2023-08-21T05:56:27;99602.91;;;25.02;82.99
21240;BME280;10778;48.962;9.018;2023-08-21T05:58:53;99600.72;;;25.36;82.16
21240;BME280;10778;48.962;9.018;2023-08-21T06:01:23;99614.16;;;25.18;82.70
21240;BME280;10778;48.962;9.018;2023-08-21T06:03:49;99610.97;;;25.27;82.01
21240;BME280;10778;48.962;9.018;2023-08-21T06:06:24;99613.94;;;24.94;83.43
21240;BME280;10778;48.962;9.018;2023-08-21T06:08:50;99613.38;;;25.10;85.99
21240;BME280;10778;48.962;9.018;2023-08-21T06:11:16;99605.00;;;25.44;84.92
21240;BME280;10778;48.962;9.018;2023-08-21T06:13:42;99609.84;;;25.35;84.94
21240;BME280;10778;48.962;9.018;2023-08-21T06:16:10;99610.75;;;25.66;83.22
21240;BME280;10778;48.962;9.018;2023-08-21T06:18:37;99612.00;;;26.20;82.06
21240;BME280;10778;48.962;9.018;2023-08-21T06:21:03;99608.31;;;26.45;79.33
21240;BME280;10778;48.962;9.018;2023-08-21T06:23:29;99608.78;;;26.41;78.85
21240;BME280;10778;48.962;9.018;2023-08-21T06:25:55;99611.19;;;26.19;80.29
21240;BME280;10778;48.962;9.018;2023-08-21T06:28:23;99609.31;;;26.62;79.01
21240;BME280;10778;48.962;9.018;2023-08-21T06:30:56;99610.69;;;26.53;79.17
21240;BME280;10778;48.962;9.018;2023-08-21T06:33:23;99610.28;;;26.25;80.55
21240;BME280;10778;48.962;9.018;2023-08-21T06:35:49;99611.09;;;26.80;77.75
21240;BME280;10778;48.962;9.018;2023-08-21T06:38:16;99604.03;;;26.67;77.22
21240;BME280;10778;48.962;9.018;2023-08-21T06:40:42;99605.00;;;26.73;78.57
21240;BME280;10778;48.962;9.018;2023-08-21T06:43:08;99613.38;;;27.19;75.24
21240;BME280;10778;48.962;9.018;2023-08-21T06:45:34;99610.44;;;27.57;74.71
21240;BME280;10778;48.962;9.018;2023-08-21T06:48:02;99609.78;;;28.19;72.51
21240;BME280;10778;48.962;9.018;2023-08-21T06:50:28;99607.63;;;28.33;71.60
21240;BME280;10778;48.962;9.018;2023-08-21T06:52:54;99611.00;;;28.75;68.93
21240;BME280;10778;48.962;9.018;2023-08-21T06:55:20;99620.63;;;27.66;73.74
21240;BME280;10778;48.962;9.018;2023-08-21T06:57:47;99614.50;;;27.71;73.94
21240;BME280;10778;48.962;9.018;2023-08-21T07:00:13;99605.41;;;28.64;70.74
21240;BME280;10778;48.962;9.018;2023-08-21T07:02:39;99616.38;;;28.58;69.66
21240;BME280;10778;48.962;9.018;2023-08-21T07:05:05;99622.34;;;27.85;73.06
21240;BME280;10778;48.962;9.018;2023-08-21T07:07:31;99622.66;;;28.00;71.97
21240;BME280;10778;48.962;9.018;2023-08-21T07:09:57;99625.81;;;27.97;73.02
21240;BME280;10778;48.962;9.018;2023-08-21T07:12:23;99611.25;;;28.56;69.60
21240;BME280;10778;48.962;9.018;2023-08-21T07:14:49;99616.53;;;28.97;67.79
21240;BME280;10778;48.962;9.018;2023-08-21T07:17:15;99611.84;;;29.32;66.51
21240;BME280;10778;48.962;9.018;2023-08-21T07:19:41;99622.25;;;29.01;67.82
21240;BME280;10778;48.962;9.018;2023-08-21T07:22:07;99623.00;;;29.52;66.66
21240;BME280;10778;48.962;9.018;2023-08-21T07:24:33;99624.16;;;29.39;67.04
21240;BME280;10778;48.962;9.018;2023-08-21T07:26:59;99626.38;;;29.82;64.10
21240;BME280;10778;48.962;9.018;2023-08-21T07:29:25;99626.59;;;29.19;66.08
21240;BME280;10778;48.962;9.018;2023-08-21T07:31:51;99623.94;;;29.24;67.03
21240;BME280;10778;48.962;9.018;2023-08-21T07:34:17;99614.19;;;29.23;65.68
21240;BME280;10778;48.962;9.018;2023-08-21T07:36:43;99622.94;;;29.47;66.72
21240;BME280;10778;48.962;9.018;2023-08-21T07:39:09;99623.91;;;28.85;66.34
21240;BME280;10778;48.962;9.018;2023-08-21T07:41:35;99624.66;;;29.54;67.05
21240;BME280;10778;48.962;9.018;2023-08-21T07:44:01;99626.28;;;28.35;67.40
21240;BME280;10778;48.962;9.018;2023-08-21T07:46:28;99623.44;;;29.27;64.62
21240;BME280;10778;48.962;9.018;2023-08-21T07:48:54;99621.81;;;29.43;63.14
21240;BME280;10778;48.962;9.018;2023-08-21T07:51:20;99623.91;;;29.80;62.18
21240;BME280;10778;48.962;9.018;2023-08-21T07:53:46;99621.44;;;29.79;61.42
21240;BME280;10778;48.962;9.018;2023-08-21T07:56:12;99632.41;;;29.45;63.37
21240;BME280;10778;48.962;9.018;2023-08-21T07:58:38;99630.72;;;30.05;62.43
21240;BME280;10778;48.962;9.018;2023-08-21T08:01:04;99630.41;;;30.29;60.40
21240;BME280;10778;48.962;9.018;2023-08-21T08:03:30;99634.31;;;30.66;60.95
21240;BME280;10778;48.962;9.018;2023-08-21T08:05:57;99626.13;;;30.99;58.96
21240;BME280;10778;48.962;9.018;2023-08-21T08:08:23;99626.75;;;30.41;60.96
21240;BME280;10778;48.962;9.018;2023-08-21T08:10:49;99619.06;;;30.98;60.38
21240;BME280;10778;48.962;9.018;2023-08-21T08:13:15;99625.75;;;30.25;63.95
21240;BME280;10778;48.962;9.018;2023-08-21T08:15:41;99619.38;;;31.01;61.78
21240;BME280;10778;48.962;9.018;2023-08-21T08:18:11;99619.34;;;31.39;59.55
21240;BME280;10778;48.962;9.018;2023-08-21T08:20:38;99614.28;;;31.63;58.47
21240;BME280;10778;48.962;9.018;2023-08-21T08:23:04;99619.81;;;31.79;61.93
21240;BME280;10778;48.962;9.018;2023-08-21T08:25:30;99616.28;;;31.30;61.02
21240;BME280;10778;48.962;9.018;2023-08-21T08:27:56;99610.97;;;31.51;60.91
21240;BME280;10778;48.962;9.018;2023-08-21T08:30:22;99611.31;;;31.65;60.20
21240;BME280;10778;48.962;9.018;2023-08-21T08:32:49;99616.28;;;31.78;59.43
21240;BME280;10778;48.962;9.018;2023-08-21T08:35:15;99607.34;;;31.88;57.45
21240;BME280;10778;48.962;9.018;2023-08-21T08:37:41;99600.31;;;32.29;56.80
21240;BME280;10778;48.962;9.018;2023-08-21T08:40:09;99600.28;;;31.98;58.57
21240;BME280;10778;48.962;9.018;2023-08-21T08:42:36;99600.84;;;32.15;58.58
21240;BME280;10778;48.962;9.018;2023-08-21T08:45:03;99600.91;;;32.93;56.44
21240;BME280;10778;48.962;9.018;2023-08-21T08:47:31;99603.06;;;32.29;58.54
21240;BME280;10778;48.962;9.018;2023-08-21T08:50:02;99603.69;;;31.67;59.18
21240;BME280;10778;48.962;9.018;2023-08-21T08:52:31;99604.94;;;32.18;58.78
21240;BME280;10778;48.962;9.018;2023-08-21T08:54:59;99599.25;;;32.82;56.34
21240;BME280;10778;48.962;9.018;2023-08-21T08:57:25;99601.91;;;33.33;54.27
21240;BME280;10778;48.962;9.018;2023-08-21T08:59:51;99593.00;;;32.86;54.97
21240;BME280;10778;48.962;9.018;2023-08-21T09:02:17;99603.09;;;33.07;55.85
21240;BME280;10778;48.962;9.018;2023-08-21T09:04:43;99591.59;;;33.15;52.87
21240;BME280;10778;48.962;9.018;2023-08-21T09:07:10;99594.06;;;33.06;54.44
21240;BME280;10778;48.962;9.018;2023-08-21T09:09:40;99598.28;;;33.59;55.37
21240;BME280;10778;48.962;9.018;2023-08-21T09:12:11;99592.41;;;33.97;54.30
21240;BME280;10778;48.962;9.018;2023-08-21T09:14:41;99599.63;;;33.67;54.03
21240;BME280;10778;48.962;9.018;2023-08-21T09:17:08;99600.81;;;34.06;53.34
21240;BME280;10778;48.962;9.018;2023-08-21T09:19:34;99592.81;;;33.64;53.11
21240;BME280;10778;48.962;9.018;2023-08-21T09:22:09;99596.25;;;33.14;56.26
21240;BME280;10778;48.962;9.018;2023-08-21T09:24:36;99591.63;;;33.81;54.42
21240;BME280;10778;48.962;9.018;2023-08-21T09:27:02;99584.75;;;33.94;54.08
21240;BME280;10778;48.962;9.018;2023-08-21T09:29:39;99587.56;;;34.23;51.89
21240;BME280;10778;48.962;9.018;2023-08-21T09:32:08;99590.47;;;33.92;53.58
21240;BME280;10778;48.962;9.018;2023-08-21T09:34:35;99587.06;;;34.21;52.99
21240;BME280;10778;48.962;9.018;2023-08-21T09:37:05;99595.84;;;34.13;52.88
21240;BME280;10778;48.962;9.018;2023-08-21T09:39:36;99589.66;;;33.97;56.04
21240;BME280;10778;48.962;9.018;2023-08-21T09:42:08;99592.59;;;33.50;56.55
21240;BME280;10778;48.962;9.018;2023-08-21T09:44:38;99590.44;;;33.37;54.14
21240;BME280;10778;48.962;9.018;2023-08-21T09:47:09;99592.75;;;32.41;57.91
21240;BME280;10778;48.962;9.018;2023-08-21T09:49:36;99588.09;;;33.04;53.99
21240;BME280;10778;48.962;9.018;2023-08-21T09:52:05;99585.81;;;33.47;55.35
21240;BME280;10778;48.962;9.018;2023-08-21T09:54:33;99579.66;;;32.74;57.30
21240;BME280;10778;48.962;9.018;2023-08-21T09:57:03;99573.56;;;33.29;56.21
21240;BME280;10778;48.962;9.018;2023-08-21T09:59:32;99577.28;;;34.10;51.44
21240;BME280;10778;48.962;9.018;2023-08-21T10:01:59;99565.03;;;34.42;47.26
21240;BME280;10778;48.962;9.018;2023-08-21T10:04:29;99570.16;;;34.14;47.18
21240;BME280;10778;48.962;9.018;2023-08-21T10:06:56;99565.09;;;33.97;48.93
21240;BME280;10778;48.962;9.018;2023-08-21T10:09:24;99563.56;;;34.20;48.07
21240;BME280;10778;48.962;9.018;2023-08-21T10:11:52;99564.91;;;34.23;48.74
21240;BME280;10778;48.962;9.018;2023-08-21T10:14:21;99554.81;;;34.23;49.74
21240;BME280;10778;48.962;9.018;2023-08-21T10:16:48;99558.88;;;34.60;49.69
21240;BME280;10778;48.962;9.018;2023-08-21T10:19:17;99552.56;;;34.65;48.91
21240;BME280;10778;48.962;9.018;2023-08-21T10:21:46;99549.63;;;34.86;48.84
21240;BME280;10778;48.962;9.018;2023-08-21T10:24:26;99558.88;;;33.25;52.77
21240;BME280;10778;48.962;9.018;2023-08-21T10:26:52;99557.72;;;33.37;54.29
21240;BME280;10778;48.962;9.018;2023-08-21T10:29:18;99551.97;;;33.43;55.45
21240;BME280;10778;48.962;9.018;2023-08-21T10:31:44;99545.13;;;33.96;51.55
21240;BME280;10778;48.962;9.018;2023-08-21T10:34:11;99546.31;;;33.80;51.48
21240;BME280;10778;48.962;9.018;2023-08-21T10:39:18;99545.13;;;33.51;53.37
21240;BME280;10778;48.962;9.018;2023-08-21T10:42:06;99537.75;;;33.57;50.31
21240;BME280;10778;48.962;9.018;2023-08-21T10:44:37;99532.91;;;33.88;52.17
21240;BME280;10778;48.962;9.018;2023-08-21T10:50:01;99540.47;;;33.57;51.73
21240;BME280;10778;48.962;9.018;2023-08-21T10:52:39;99539.03;;;32.94;52.13
21240;BME280;10778;48.962;9.018;2023-08-21T10:55:08;99541.59;;;33.51;51.97
21240;BME280;10778;48.962;9.018;2023-08-21T10:57:37;99535.28;;;32.63;53.68
21240;BME280;10778;48.962;9.018;2023-08-21T11:00:05;99540.50;;;33.41;52.38
21240;BME280;10778;48.962;9.018;2023-08-21T11:02:33;99540.94;;;31.84;54.17
21240;BME280;10778;48.962;9.018;2023-08-21T11:05:00;99539.88;;;32.16;57.43
21240;BME280;10778;48.962;9.018;2023-08-21T11:07:27;99541.50;;;31.91;56.44
21240;BME280;10778;48.962;9.018;2023-08-21T11:09:53;99539.59;;;32.07;55.54
21240;BME280;10778;48.962;9.018;2023-08-21T11:12:20;99528.75;;;32.54;55.85
21240;BME280;10778;48.962;9.018;2023-08-21T11:14:48;99531.47;;;32.65;55.68
21240;BME280;10778;48.962;9.018;2023-08-21T11:17:14;99522.97;;;32.92;53.41
21240;BME280;10778;48.962;9.018;2023-08-21T11:19:41;99528.53;;;33.47;53.73
21240;BME280;10778;48.962;9.018;2023-08-21T11:22:08;99527.63;;;32.81;53.67
21240;BME280;10778;48.962;9.018;2023-08-21T11:27:07;99521.59;;;32.84;53.61
21240;BME280;10778;48.962;9.018;2023-08-21T11:29:39;99518.22;;;33.24;52.66
21240;BME280;10778;48.962;9.018;2023-08-21T11:34:37;99524.53;;;33.14;50.24
21240;BME280;10778;48.962;9.018;2023-08-21T11:37:04;99515.97;;;33.46;49.92
21240;BME280;10778;48.962;9.018;2023-08-21T11:39:44;99519.69;;;32.95;51.76
21240;BME280;10778;48.962;9.018;2023-08-21T11:42:12;99514.47;;;33.14;51.51
21240;BME280;10778;48.962;9.018;2023-08-21T11:44:52;99517.53;;;33.58;50.99
21240;BME280;10778;48.962;9.018;2023-08-21T11:47:20;99513.72;;;33.59;50.58
21240;BME280;10778;48.962;9.018;2023-08-21T11:49:47;99516.41;;;33.69;50.22
21240;BME280;10778;48.962;9.018;2023-08-21T11:52:18;99509.88;;;34.10;51.25
21240;BME280;10778;48.962;9.018;2023-08-21T11:54:50;99511.78;;;34.39;49.82
21240;BME280;10778;48.962;9.018;2023-08-21T11:57:18;99518.72;;;33.86;50.80
21240;BME280;10778;48.962;9.018;2023-08-21T11:59:54;99514.66;;;33.84;50.69
21240;BME280;10778;48.962;9.018;2023-08-21T12:02:25;99516.28;;;33.85;49.81
21240;BME280;10778;48.962;9.018;2023-08-21T12:05:01;99501.50;;;34.60;49.61
21240;BME280;10778;48.962;9.018;2023-08-21T12:07:28;99505.41;;;34.19;49.39
21240;BME280;10778;48.962;9.018;2023-08-21T12:09:54;99505.09;;;34.56;48.96
21240;BME280;10778;48.962;9.018;2023-08-21T12:12:20;99506.75;;;34.22;49.90
21240;BME280;10778;48.962;9.018;2023-08-21T12:14:46;99502.16;;;34.52;47.68
21240;BME280;10778;48.962;9.018;2023-08-21T12:17:12;99502.38;;;35.10;47.37
21240;BME280;10778;48.962;9.018;2023-08-21T12:19:38;99502.69;;;34.79;48.58
21240;BME280;10778;48.962;9.018;2023-08-21T12:22:04;99499.63;;;34.85;48.95
21240;BME280;10778;48.962;9.018;2023-08-21T12:24:31;99499.63;;;34.85;47.01
21240;BME280;10778;48.962;9.018;2023-08-21T12:26:57;99492.91;;;34.97;46.63
21240;BME280;10778;48.962;9.018;2023-08-21T12:29:23;99495.19;;;34.89;48.21
21240;BME280;10778;48.962;9.018;2023-08-21T12:31:49;99492.28;;;35.29;46.42
21240;BME280;10778;48.962;9.018;2023-08-21T12:34:15;99488.78;;;35.24;45.99
21240;BME280;10778;48.962;9.018;2023-08-21T12:36:41;99479.97;;;35.27;46.78
21240;BME280;10778;48.962;9.018;2023-08-21T12:39:07;99488.03;;;34.69;47.92
21240;BME280;10778;48.962;9.018;2023-08-21T12:41:34;99482.19;;;35.25;46.44
21240;BME280;10778;48.962;9.018;2023-08-21T12:44:01;99489.59;;;34.46;46.96
21240;BME280;10778;48.962;9.018;2023-08-21T12:46:29;99478.25;;;34.63;47.36
21240;BME280;10778;48.962;9.018;2023-08-21T12:48:56;99478.13;;;34.98;47.27
21240;BME280;10778;48.962;9.018;2023-08-21T12:51:22;99478.44;;;34.96;47.39
21240;BME280;10778;48.962;9.018;2023-08-21T12:53:48;99472.06;;;35.25;47.58
21240;BME280;10778;48.962;9.018;2023-08-21T12:56:16;99467.94;;;34.55;49.28
21240;BME280;10778;48.962;9.018;2023-08-21T12:58:42;99473.28;;;34.06;50.22
21240;BME280;10778;48.962;9.018;2023-08-21T13:01:08;99471.78;;;33.50;50.83
21240;BME280;10778;48.962;9.018;2023-08-21T13:03:34;99475.09;;;33.36;50.89
21240;BME280;10778;48.962;9.018;2023-08-21T13:06:00;99472.31;;;33.52;51.19
21240;BME280;10778;48.962;9.018;2023-08-21T13:08:26;99479.56;;;33.11;53.25